createdAt,value
2016-10-12T00:00:14.493Z,10.22
2016-10-12T00:01:14.831Z,10.15
2016-10-12T00:02:14.215Z,10.23
2016-10-12T00:03:14.226Z,10.3
2016-10-12T00:04:14.873Z,10.23
2016-10-12T00:05:14.574Z,10.22
2016-10-12T00:06:14.593Z,10.28
2016-10-12T00:07:14.735Z,10.3
2016-10-12T00:08:14.683Z,10.3
2016-10-12T00:09:14.826Z,10.26
2016-10-12T00:10:15.009Z,10.33
2016-10-12T00:11:14.695Z,10.28
2016-10-12T00:12:15.015Z,10.28
2016-10-12T00:13:15.048Z,10.33
2016-10-12T00:14:14.742Z,10.3
2016-10-12T00:15:14.754Z,10.23
2016-10-12T00:16:14.795Z,10.22
2016-10-12T00:17:14.798Z,10.25
2016-10-12T00:18:15.173Z,10.16
2016-10-12T00:19:14.537Z,10.17
2016-10-12T00:20:14.844Z,10.16
2016-10-12T00:21:15.042Z,10.19
2016-10-12T00:22:14.882Z,10.16
2016-10-12T00:23:15.616Z,10.16
2016-10-12T00:24:14.953Z,10.12
2016-10-12T00:25:14.945Z,10.13
2016-10-12T00:26:14.944Z,10.15
2016-10-12T00:27:14.645Z,10.13
2016-10-12T00:28:14.991Z,10.02
2016-10-12T00:29:15.027Z,10.01
2016-10-12T00:30:15.384Z,10.04
2016-10-12T00:31:15.345Z,10.1
2016-10-12T00:32:15.043Z,10.04
2016-10-12T00:33:15.114Z,10.02
2016-10-12T00:34:15.083Z,10.07
2016-10-12T00:35:15.106Z,10.1
2016-10-12T00:36:15.153Z,10.16
2016-10-12T00:37:15.280Z,10.1
2016-10-12T00:38:15.151Z,10.23
2016-10-12T00:39:15.178Z,10.22
2016-10-12T00:40:15.186Z,10.19
2016-10-12T00:41:15.303Z,10.22
2016-10-12T00:42:15.712Z,10.16
2016-10-12T00:43:15.397Z,10.3
2016-10-12T00:44:15.410Z,10.28
2016-10-12T00:45:15.390Z,10.28
2016-10-12T00:46:15.611Z,10.22
2016-10-12T00:47:15.438Z,10.23
2016-10-12T00:48:15.121Z,10.23
2016-10-12T00:49:15.982Z,10.2
2016-10-12T00:50:15.414Z,10.23
2016-10-12T00:51:15.244Z,10.22
2016-10-12T00:52:15.712Z,10.22
2016-10-12T00:53:15.148Z,10.3
2016-10-12T00:54:15.777Z,10.22
2016-10-12T00:55:15.784Z,10.26
2016-10-12T00:56:15.901Z,10.2
2016-10-12T00:57:15.499Z,10.13
2016-10-12T00:58:15.670Z,10.15
2016-10-12T00:59:15.534Z,10.15
2016-10-12T01:00:15.582Z,10.04
2016-10-12T01:01:16.061Z,10.13
2016-10-12T01:02:16.050Z,10.04
2016-10-12T01:03:15.281Z,10.09
2016-10-12T01:04:15.505Z,10.17
2016-10-12T01:05:15.954Z,10.16
2016-10-12T01:06:15.328Z,10.22
2016-10-12T01:07:15.342Z,10.17
2016-10-12T01:08:16.075Z,10.19
2016-10-12T01:09:16.026Z,10.15
2016-10-12T01:10:15.486Z,10.17
2016-10-12T01:11:15.574Z,10.16
2016-10-12T01:12:15.752Z,10.19
2016-10-12T01:13:16.089Z,10.23
2016-10-12T01:14:15.778Z,10.22
2016-10-12T01:15:16.349Z,10.22
2016-10-12T01:16:16.148Z,10.15
2016-10-12T01:17:16.147Z,10.02
2016-10-12T01:18:16.165Z,10.05
2016-10-12T01:19:15.551Z,10.1
2016-10-12T01:20:15.923Z,10.04
2016-10-12T01:21:16.226Z,10.04
2016-10-12T01:22:15.609Z,10.07
2016-10-12T01:23:16.039Z,10.02
2016-10-12T01:24:15.956Z,10.15
2016-10-12T01:25:16.427Z,10.13
2016-10-12T01:26:16.006Z,10.12
2016-10-12T01:27:16.316Z,10.07
2016-10-12T01:28:16.033Z,9.98
2016-10-12T01:29:16.164Z,9.99
2016-10-12T01:30:16.084Z,10.09
2016-10-12T01:31:15.754Z,10.04
2016-10-12T01:32:16.118Z,10.1
2016-10-12T01:33:16.116Z,10.04
2016-10-12T01:34:15.868Z,9.98
2016-10-12T01:35:16.142Z,9.92
2016-10-12T01:36:16.157Z,10.01
2016-10-12T01:37:16.176Z,10.02
2016-10-12T01:38:16.197Z,9.99
2016-10-12T01:39:15.923Z,9.98
2016-10-12T01:40:15.995Z,9.95
2016-10-12T01:41:17.527Z,10.01
2016-10-12T01:42:15.979Z,10.1
2016-10-12T01:43:16.675Z,10.09
2016-10-12T01:44:15.994Z,10.12
2016-10-12T01:45:16.674Z,10.01
2016-10-12T01:46:16.422Z,10.02
2016-10-12T01:47:16.407Z,10.13
2016-10-12T01:48:16.465Z,10.16
2016-10-12T01:49:16.477Z,10.23
2016-10-12T01:50:16.498Z,10.12
2016-10-12T01:51:16.118Z,10.12
2016-10-12T01:52:16.753Z,10.05
2016-10-12T01:53:16.149Z,10.07
2016-10-12T01:54:16.898Z,10.04
2016-10-12T01:55:16.834Z,10.07
2016-10-12T01:56:16.515Z,10.04
2016-10-12T01:57:16.209Z,10.01
2016-10-12T01:58:16.227Z,10.05
2016-10-12T01:59:16.557Z,10.07
2016-10-12T02:00:16.575Z,10.05
2016-10-12T02:01:16.611Z,10.05
2016-10-12T02:02:16.619Z,10.04
2016-10-12T02:03:16.986Z,10.04
2016-10-12T02:04:16.645Z,10.02
2016-10-12T02:05:16.361Z,10.01
2016-10-12T02:06:16.679Z,10.07
2016-10-12T02:07:16.382Z,10.04
2016-10-12T02:08:16.714Z,10.07
2016-10-12T02:09:16.416Z,10.07
2016-10-12T02:10:16.745Z,10.02
2016-10-12T02:11:16.451Z,10.04
2016-10-12T02:12:16.798Z,10.09
2016-10-12T02:13:16.799Z,10.04
2016-10-12T02:14:16.885Z,10.05
2016-10-12T02:15:16.564Z,10.1
2016-10-12T02:16:16.941Z,10.07
2016-10-12T02:17:16.959Z,10.15
2016-10-12T02:18:16.570Z,10.05
2016-10-12T02:19:16.911Z,10.05
2016-10-12T02:20:17.291Z,10.05
2016-10-12T02:21:16.624Z,10.07
2016-10-12T02:22:16.952Z,10.07
2016-10-12T02:23:16.972Z,10.22
2016-10-12T02:24:16.674Z,10.1
2016-10-12T02:25:18.295Z,10.13
2016-10-12T02:26:18.202Z,10.13
2016-10-12T02:27:17.042Z,10.16
2016-10-12T02:28:17.466Z,10.19
2016-10-12T02:29:17.091Z,10.07
2016-10-12T02:30:16.812Z,10.15
2016-10-12T02:31:17.119Z,10.05
2016-10-12T02:32:17.180Z,10.07
2016-10-12T02:33:16.830Z,10.02
2016-10-12T02:34:17.228Z,9.99
2016-10-12T02:35:16.863Z,10.1
2016-10-12T02:36:17.203Z,10.13
2016-10-12T02:37:16.902Z,10.13
2016-10-12T02:38:17.575Z,10.16
2016-10-12T02:39:16.974Z,10.15
2016-10-12T02:40:17.265Z,10.07
2016-10-12T02:41:17.394Z,10.17
2016-10-12T02:42:17.621Z,10.13
2016-10-12T02:43:17.009Z,10.12
2016-10-12T02:44:17.033Z,10.2
2016-10-12T02:45:17.688Z,10.19
2016-10-12T02:46:17.074Z,10.17
2016-10-12T02:47:17.078Z,10.1
2016-10-12T02:48:17.722Z,10.17
2016-10-12T02:49:17.421Z,10.2
2016-10-12T02:50:17.135Z,10.17
2016-10-12T02:51:17.492Z,10.1
2016-10-12T02:52:17.788Z,10.15
2016-10-12T02:53:17.172Z,10.07
2016-10-12T02:54:17.524Z,10.05
2016-10-12T02:55:17.209Z,10.05
2016-10-12T02:56:17.543Z,10.09
2016-10-12T02:57:17.579Z,10.22
2016-10-12T02:58:17.586Z,10.19
2016-10-12T02:59:17.283Z,10.13
2016-10-12T03:00:17.303Z,10.23
2016-10-12T03:01:17.945Z,10.19
2016-10-12T03:02:17.645Z,10.09
2016-10-12T03:03:17.596Z,10.07
2016-10-12T03:04:18.050Z,10.04
2016-10-12T03:05:17.411Z,10.04
2016-10-12T03:06:17.721Z,9.94
2016-10-12T03:07:17.776Z,10.01
2016-10-12T03:08:17.831Z,9.99
2016-10-12T03:09:17.983Z,9.98
2016-10-12T03:10:17.791Z,10.04
2016-10-12T03:11:17.808Z,9.98
2016-10-12T03:12:17.552Z,10.05
2016-10-12T03:13:17.584Z,10.01
2016-10-12T03:15:17.888Z,10.01
2016-10-12T03:16:18.351Z,10.01
2016-10-12T03:17:17.611Z,10.01
2016-10-12T03:18:17.612Z,9.95
2016-10-12T03:19:17.963Z,10.01
2016-10-12T03:20:18.022Z,9.98
2016-10-12T03:21:17.703Z,9.97
2016-10-12T03:22:18.341Z,10.01
2016-10-12T03:23:17.700Z,9.94
2016-10-12T03:24:18.376Z,9.94
2016-10-12T03:25:18.065Z,9.98
2016-10-12T03:26:17.813Z,9.99
2016-10-12T03:27:17.763Z,10.01
2016-10-12T03:28:18.407Z,9.99
2016-10-12T03:29:18.429Z,9.97
2016-10-12T03:30:18.136Z,10.05
2016-10-12T03:31:17.835Z,10.02
2016-10-12T03:32:18.161Z,9.95
2016-10-12T03:33:17.870Z,9.98
2016-10-12T03:34:18.515Z,9.89
2016-10-12T03:35:18.217Z,9.89
2016-10-12T03:36:18.550Z,9.91
2016-10-12T03:37:18.583Z,9.87
2016-10-12T03:38:18.272Z,9.87
2016-10-12T03:39:17.968Z,9.98
2016-10-12T03:40:17.988Z,9.91
2016-10-12T03:41:18.329Z,9.98
2016-10-12T03:42:18.032Z,9.99
2016-10-12T03:43:18.667Z,9.99
2016-10-12T03:44:18.372Z,9.97
2016-10-12T03:45:18.389Z,9.97
2016-10-12T03:46:18.723Z,9.99
2016-10-12T03:47:18.434Z,9.95
2016-10-12T03:48:18.124Z,10.04
2016-10-12T03:49:18.776Z,9.94
2016-10-12T03:50:18.178Z,9.98
2016-10-12T03:51:18.185Z,9.99
2016-10-12T03:52:18.509Z,9.98
2016-10-12T03:53:18.230Z,9.99
2016-10-12T03:54:18.545Z,10.02
2016-10-12T03:55:18.563Z,9.98
2016-10-12T03:56:18.895Z,9.98
2016-10-12T03:57:18.598Z,9.99
2016-10-12T03:58:18.617Z,9.92
2016-10-12T03:59:18.315Z,9.99
2016-10-12T04:00:18.336Z,10.04
2016-10-12T04:01:18.353Z,10.09
2016-10-12T04:02:18.998Z,10.19
2016-10-12T04:03:18.700Z,10.13
2016-10-12T04:04:18.399Z,10.19
2016-10-12T04:05:18.756Z,10.16
2016-10-12T04:06:18.752Z,10.25
2016-10-12T04:07:18.770Z,10.3
2016-10-12T04:08:19.099Z,10.25
2016-10-12T04:09:19.118Z,10.2
2016-10-12T04:10:18.818Z,10.26
2016-10-12T04:11:19.156Z,10.22
2016-10-12T04:12:18.857Z,10.3
2016-10-12T04:13:19.187Z,10.31
2016-10-12T04:14:18.900Z,10.23
2016-10-12T04:15:19.223Z,10.26
2016-10-12T04:16:18.608Z,10.33
2016-10-12T04:17:18.627Z,10.28
2016-10-12T04:18:18.956Z,10.35
2016-10-12T04:19:18.989Z,10.33
2016-10-12T04:20:18.686Z,10.4
2016-10-12T04:21:19.328Z,10.3
2016-10-12T04:22:19.355Z,10.3
2016-10-12T04:23:19.051Z,10.26
2016-10-12T04:24:19.109Z,10.31
2016-10-12T04:25:19.079Z,10.3
2016-10-12T04:26:19.176Z,10.25
2016-10-12T04:27:19.135Z,10.33
2016-10-12T04:28:18.828Z,10.33
2016-10-12T04:29:19.266Z,10.3
2016-10-12T04:30:18.861Z,10.2
2016-10-12T04:31:18.888Z,10.19
2016-10-12T04:32:18.898Z,10.23
2016-10-12T04:33:19.260Z,10.33
2016-10-12T04:34:19.306Z,10.3
2016-10-12T04:35:19.317Z,10.25
2016-10-12T04:36:18.982Z,10.28
2016-10-12T04:37:19.298Z,10.3
2016-10-12T04:38:19.333Z,10.25
2016-10-12T04:39:19.340Z,10.25
2016-10-12T04:40:19.412Z,10.31
2016-10-12T04:41:19.111Z,10.31
2016-10-12T04:42:19.724Z,10.25
2016-10-12T04:43:19.095Z,10.15
2016-10-12T04:44:19.764Z,10.25
2016-10-12T04:45:19.464Z,10.23
2016-10-12T04:46:19.441Z,10.16
2016-10-12T04:47:19.464Z,10.23
2016-10-12T04:48:19.793Z,10.2
2016-10-12T04:49:19.491Z,10.16
2016-10-12T04:50:19.835Z,10.12
2016-10-12T04:51:19.528Z,10.07
2016-10-12T04:52:19.609Z,10.05
2016-10-12T04:53:19.568Z,10.13
2016-10-12T04:54:20.678Z,10.12
2016-10-12T04:55:19.293Z,10.04
2016-10-12T04:56:19.951Z,10.09
2016-10-12T04:57:19.655Z,10.1
2016-10-12T04:58:19.680Z,10.02
2016-10-12T04:59:19.367Z,9.98
2016-10-12T05:00:19.706Z,10.01
2016-10-12T05:01:19.702Z,9.92
2016-10-12T05:02:19.809Z,10.02
2016-10-12T05:03:19.753Z,10.04
2016-10-12T05:04:19.872Z,10.01
2016-10-12T05:05:19.849Z,10.02
2016-10-12T05:06:19.834Z,9.94
2016-10-12T05:07:19.825Z,9.94
2016-10-12T05:08:19.870Z,9.95
2016-10-12T05:09:20.170Z,9.83
2016-10-12T05:10:19.867Z,9.86
2016-10-12T05:11:19.565Z,9.87
2016-10-12T05:12:19.986Z,9.79
2016-10-12T05:13:19.972Z,9.86
2016-10-12T05:14:20.262Z,9.83
2016-10-12T05:15:19.955Z,9.77
2016-10-12T05:16:19.999Z,9.84
2016-10-12T05:17:20.085Z,9.8
2016-10-12T05:18:20.012Z,9.82
2016-10-12T05:19:20.011Z,9.83
2016-10-12T05:20:20.028Z,9.84
2016-10-12T05:21:19.724Z,9.91
2016-10-12T05:22:20.079Z,9.87
2016-10-12T05:23:20.393Z,9.84
2016-10-12T05:24:19.781Z,9.87
2016-10-12T05:25:20.859Z,9.86
2016-10-12T05:26:19.945Z,9.83
2016-10-12T05:27:20.143Z,9.89
2016-10-12T05:28:19.850Z,9.89
2016-10-12T05:29:20.499Z,9.91
2016-10-12T05:30:20.205Z,9.91
2016-10-12T05:31:20.207Z,9.91
2016-10-12T05:32:20.239Z,9.89
2016-10-12T05:33:19.936Z,9.92
2016-10-12T05:34:20.266Z,9.77
2016-10-12T05:35:20.595Z,9.8
2016-10-12T05:36:20.630Z,9.86
2016-10-12T05:37:20.000Z,9.83
2016-10-12T05:38:20.650Z,9.84
2016-10-12T05:39:20.033Z,9.83
2016-10-12T05:40:20.374Z,9.83
2016-10-12T05:41:20.101Z,9.82
2016-10-12T05:42:20.399Z,9.87
2016-10-12T05:43:20.781Z,9.91
2016-10-12T05:44:20.764Z,9.8
2016-10-12T05:45:20.451Z,9.8
2016-10-12T05:46:20.469Z,9.79
2016-10-12T05:47:20.169Z,9.8
2016-10-12T05:48:20.189Z,9.82
2016-10-12T05:49:20.520Z,9.82
2016-10-12T05:50:20.218Z,9.82
2016-10-12T05:51:20.570Z,9.91
2016-10-12T05:52:20.579Z,9.79
2016-10-12T05:53:20.585Z,9.89
2016-10-12T05:54:20.943Z,9.89
2016-10-12T05:55:20.640Z,9.95
2016-10-12T05:56:20.646Z,9.84
2016-10-12T05:57:20.666Z,10.01
2016-10-12T05:58:20.695Z,9.99
2016-10-12T05:59:21.006Z,9.99
2016-10-12T06:00:20.715Z,9.99
2016-10-12T06:01:20.727Z,9.98
2016-10-12T06:02:20.446Z,10.01
2016-10-12T06:03:20.456Z,10.01
2016-10-12T06:04:20.781Z,10.04
2016-10-12T06:05:20.478Z,9.95
2016-10-12T06:06:20.818Z,9.91
2016-10-12T06:07:20.511Z,9.95
2016-10-12T06:08:20.530Z,10.01
2016-10-12T06:09:20.546Z,9.99
2016-10-12T06:10:20.882Z,9.94
2016-10-12T06:11:21.211Z,9.99
2016-10-12T06:12:20.618Z,9.94
2016-10-12T06:13:20.932Z,10.01
2016-10-12T06:14:21.274Z,10.02
2016-10-12T06:15:21.285Z,9.99
2016-10-12T06:16:20.679Z,9.99
2016-10-12T06:17:20.683Z,9.99
2016-10-12T06:18:21.027Z,10.02
2016-10-12T06:19:21.356Z,10.05
2016-10-12T06:20:21.061Z,10.05
2016-10-12T06:21:21.071Z,10.15
2016-10-12T06:22:21.090Z,10.1
2016-10-12T06:23:21.104Z,10.1
2016-10-12T06:24:21.137Z,10.12
2016-10-12T06:25:21.143Z,10.1
2016-10-12T06:26:20.856Z,10.09
2016-10-12T06:27:21.172Z,9.99
2016-10-12T06:28:21.190Z,10.05
2016-10-12T06:29:21.206Z,9.99
2016-10-12T06:30:21.236Z,9.92
2016-10-12T06:31:21.567Z,10.02
2016-10-12T06:32:21.577Z,9.94
2016-10-12T06:33:20.961Z,9.99
2016-10-12T06:34:20.984Z,9.98
2016-10-12T06:35:21.000Z,10.02
2016-10-12T06:36:21.331Z,10.01
2016-10-12T06:37:21.661Z,9.99
2016-10-12T06:38:21.366Z,9.95
2016-10-12T06:39:21.387Z,10.01
2016-10-12T06:40:21.091Z,9.95
2016-10-12T06:41:21.413Z,9.91
2016-10-12T06:42:21.748Z,9.91
2016-10-12T06:43:21.131Z,9.91
2016-10-12T06:44:21.484Z,9.97
2016-10-12T06:45:21.167Z,9.86
2016-10-12T06:46:21.499Z,9.86
2016-10-12T06:47:21.201Z,9.83
2016-10-12T06:48:21.531Z,9.87
2016-10-12T06:49:21.549Z,9.83
2016-10-12T06:50:21.569Z,9.91
2016-10-12T06:51:21.582Z,9.87
2016-10-12T06:52:21.601Z,9.92
2016-10-12T06:53:21.934Z,9.86
2016-10-12T06:54:21.648Z,9.92
2016-10-12T06:55:21.652Z,9.95
2016-10-12T06:56:21.367Z,9.98
2016-10-12T06:57:21.370Z,9.98
2016-10-12T06:58:21.398Z,9.89
2016-10-12T06:59:21.722Z,9.91
2016-10-12T07:00:21.425Z,9.89
2016-10-12T07:01:22.069Z,9.95
2016-10-12T07:02:21.459Z,9.98
2016-10-12T07:03:21.789Z,9.92
2016-10-12T07:04:21.495Z,9.98
2016-10-12T07:05:21.510Z,9.91
2016-10-12T07:06:21.526Z,9.91
2016-10-12T07:07:21.541Z,9.91
2016-10-12T07:08:21.571Z,9.98
2016-10-12T07:09:21.902Z,9.98
2016-10-12T07:10:22.232Z,10.01
2016-10-12T07:11:22.242Z,10.04
2016-10-12T07:12:21.631Z,9.95
2016-10-12T07:13:21.968Z,9.95
2016-10-12T07:14:21.977Z,9.95
2016-10-12T07:15:22.309Z,9.86
2016-10-12T07:16:22.350Z,9.86
2016-10-12T07:17:21.714Z,9.84
2016-10-12T07:18:22.057Z,9.91
2016-10-12T07:19:22.063Z,9.86
2016-10-12T07:20:21.766Z,9.86
2016-10-12T07:21:22.418Z,9.87
2016-10-12T07:22:22.124Z,9.91
2016-10-12T07:23:21.819Z,9.89
2016-10-12T07:24:22.165Z,9.95
2016-10-12T07:25:21.861Z,9.91
2016-10-12T07:26:22.187Z,9.98
2016-10-12T07:27:22.228Z,10.04
2016-10-12T07:28:21.906Z,9.98
2016-10-12T07:29:22.250Z,9.99
2016-10-12T07:30:22.581Z,10.04
2016-10-12T07:31:22.298Z,9.97
2016-10-12T07:32:22.303Z,10.09
2016-10-12T07:33:21.997Z,10.05
2016-10-12T07:34:22.329Z,10.15
2016-10-12T07:35:22.345Z,10.07
2016-10-12T07:36:22.679Z,10.01
2016-10-12T07:37:22.692Z,10.05
2016-10-12T07:38:22.394Z,10.12
2016-10-12T07:39:22.413Z,10.16
2016-10-12T07:40:22.430Z,10.05
2016-10-12T07:41:22.149Z,10.12
2016-10-12T07:42:22.147Z,10.17
2016-10-12T07:43:22.484Z,10.23
2016-10-12T07:44:22.498Z,10.16
2016-10-12T07:45:22.214Z,10.22
2016-10-12T07:46:22.232Z,10.16
2016-10-12T07:47:22.867Z,10.31
2016-10-12T07:48:22.569Z,10.35
2016-10-12T07:49:22.272Z,10.38
2016-10-12T07:50:22.914Z,10.35
2016-10-12T07:51:22.626Z,10.46
2016-10-12T07:52:22.952Z,10.38
2016-10-12T07:53:22.347Z,10.44
2016-10-12T07:54:22.674Z,10.4
2016-10-12T07:55:22.374Z,10.51
2016-10-12T07:56:22.704Z,10.48
2016-10-12T07:57:22.727Z,10.53
2016-10-12T07:58:22.428Z,10.61
2016-10-12T07:59:22.443Z,10.61
2016-10-12T08:00:22.472Z,10.69
2016-10-12T08:01:22.798Z,10.68
2016-10-12T08:02:22.506Z,10.72
2016-10-12T08:03:23.155Z,10.64
2016-10-12T08:04:22.536Z,10.54
2016-10-12T08:05:22.867Z,10.76
2016-10-12T08:06:22.884Z,10.84
2016-10-12T08:07:23.216Z,10.87
2016-10-12T08:08:22.919Z,10.96
2016-10-12T08:09:22.635Z,11.04
2016-10-12T08:10:22.638Z,11.04
2016-10-12T08:11:22.978Z,11.17
2016-10-12T08:12:22.672Z,11.26
2016-10-12T08:13:22.695Z,11.26
2016-10-12T08:14:23.023Z,11.3
2016-10-12T08:15:22.732Z,11.35
2016-10-12T08:16:22.759Z,11.37
2016-10-12T08:17:22.768Z,11.4
2016-10-12T08:18:23.097Z,11.37
2016-10-12T08:19:23.132Z,11.4
2016-10-12T08:20:23.147Z,11.3
2016-10-12T08:21:23.156Z,11.22
2016-10-12T08:22:23.486Z,11.23
2016-10-12T08:23:23.197Z,11.27
2016-10-12T08:24:22.893Z,11.33
2016-10-12T08:25:23.226Z,11.35
2016-10-12T08:26:23.555Z,11.37
2016-10-12T08:27:23.269Z,11.35
2016-10-12T08:28:22.963Z,11.4
2016-10-12T08:29:22.983Z,11.37
2016-10-12T08:30:23.626Z,11.4
2016-10-12T08:31:23.355Z,11.41
2016-10-12T08:32:23.662Z,11.41
2016-10-12T08:33:23.365Z,11.44
2016-10-12T08:34:23.389Z,11.4
2016-10-12T08:35:23.421Z,11.4
2016-10-12T08:36:23.137Z,11.44
2016-10-12T08:37:23.441Z,11.43
2016-10-12T08:38:23.474Z,11.33
2016-10-12T08:39:23.490Z,11.41
2016-10-12T08:40:23.808Z,11.41
2016-10-12T08:41:23.512Z,11.41
2016-10-12T08:42:23.530Z,11.4
2016-10-12T08:43:23.234Z,11.36
2016-10-12T08:44:23.560Z,11.4
2016-10-12T08:45:23.273Z,11.32
2016-10-12T08:46:23.915Z,11.35
2016-10-12T08:47:23.639Z,11.41
2016-10-12T08:48:23.337Z,11.47
2016-10-12T08:49:23.667Z,11.33
2016-10-12T08:50:23.459Z,11.37
2016-10-12T08:51:23.812Z,11.35
2016-10-12T08:52:24.092Z,11.43
2016-10-12T08:53:23.863Z,11.47
2016-10-12T08:54:24.070Z,11.47
2016-10-12T08:55:23.761Z,11.41
2016-10-12T08:56:23.789Z,11.43
2016-10-12T08:57:24.117Z,11.47
2016-10-12T08:58:23.576Z,11.45
2016-10-12T08:59:23.830Z,11.44
2016-10-12T09:00:23.536Z,11.44
2016-10-12T09:01:23.558Z,11.55
2016-10-12T09:02:23.891Z,11.43
2016-10-12T09:03:24.224Z,11.57
2016-10-12T09:04:24.240Z,11.55
2016-10-12T09:05:23.631Z,11.59
2016-10-12T09:06:24.285Z,11.62
2016-10-12T09:07:23.667Z,11.52
2016-10-12T09:08:24.321Z,11.66
2016-10-12T09:09:25.372Z,11.65
2016-10-12T09:10:24.773Z,11.62
2016-10-12T09:11:24.374Z,11.62
2016-10-12T09:12:24.072Z,11.62
2016-10-12T09:13:23.776Z,11.68
2016-10-12T09:14:24.163Z,11.62
2016-10-12T09:15:24.164Z,11.62
2016-10-12T09:16:23.898Z,11.63
2016-10-12T09:17:23.848Z,11.62
2016-10-12T09:18:24.185Z,11.69
2016-10-12T09:19:24.516Z,11.6
2016-10-12T09:20:24.236Z,11.78
2016-10-12T09:21:24.548Z,11.77
2016-10-12T09:22:24.257Z,11.84
2016-10-12T09:23:23.964Z,11.77
2016-10-12T09:24:23.974Z,11.9
2016-10-12T09:25:23.993Z,11.94
2016-10-12T09:26:24.652Z,11.87
2016-10-12T09:27:24.351Z,11.81
2016-10-12T09:28:24.367Z,11.87
2016-10-12T09:29:24.378Z,11.81
2016-10-12T09:30:24.539Z,11.8
2016-10-12T09:31:24.425Z,11.77
2016-10-12T09:32:24.435Z,11.9
2016-10-12T09:33:24.460Z,11.86
2016-10-12T09:34:24.161Z,11.95
2016-10-12T09:35:24.171Z,11.95
2016-10-12T09:36:24.515Z,12.1
2016-10-12T09:37:24.529Z,12.06
2016-10-12T09:38:24.747Z,12.06
2016-10-12T09:39:24.584Z,12.22
2016-10-12T09:40:24.739Z,12.29
2016-10-12T09:41:24.369Z,12.32
2016-10-12T09:42:24.670Z,12.28
2016-10-12T09:43:24.785Z,12.25
2016-10-12T09:44:24.976Z,12.37
2016-10-12T09:45:25.007Z,12.5
2016-10-12T09:46:24.380Z,12.5
2016-10-12T09:47:24.401Z,12.42
2016-10-12T09:48:24.733Z,12.5
2016-10-12T09:49:24.436Z,12.49
2016-10-12T09:50:24.456Z,12.46
2016-10-12T09:51:24.788Z,12.57
2016-10-12T09:52:24.819Z,12.6
2016-10-12T09:53:25.146Z,12.6
2016-10-12T09:54:24.537Z,12.67
2016-10-12T09:55:24.586Z,12.65
2016-10-12T09:56:24.568Z,12.67
2016-10-12T09:57:24.904Z,12.61
2016-10-12T09:58:25.235Z,12.64
2016-10-12T09:59:24.943Z,12.68
2016-10-12T10:00:25.010Z,12.62
2016-10-12T10:01:24.673Z,12.65
2016-10-12T10:02:25.009Z,12.67
2016-10-12T10:03:25.011Z,12.55
2016-10-12T10:04:25.352Z,12.5
2016-10-12T10:05:24.925Z,12.42
2016-10-12T10:06:25.743Z,12.36
2016-10-12T10:07:25.683Z,12.27
2016-10-12T10:08:25.187Z,12.32
2016-10-12T10:09:25.526Z,12.28
2016-10-12T10:10:25.170Z,12.27
2016-10-12T10:11:24.849Z,12.25
2016-10-12T10:12:24.866Z,12.39
2016-10-12T10:13:25.517Z,12.37
2016-10-12T10:14:25.222Z,12.5
2016-10-12T10:15:25.240Z,12.5
2016-10-12T10:16:24.966Z,12.47
2016-10-12T10:17:25.010Z,12.43
2016-10-12T10:18:25.293Z,12.45
2016-10-12T10:19:25.315Z,12.37
2016-10-12T10:20:25.645Z,12.46
2016-10-12T10:21:25.036Z,12.5
2016-10-12T10:22:25.368Z,12.43
2016-10-12T10:23:25.080Z,12.45
2016-10-12T10:24:25.726Z,12.36
2016-10-12T10:25:25.423Z,12.28
2016-10-12T10:26:25.128Z,12.17
2016-10-12T10:27:25.467Z,12.27
2016-10-12T10:28:25.489Z,12.35
2016-10-12T10:29:25.184Z,12.35
2016-10-12T10:30:25.205Z,12.39
2016-10-12T10:31:25.227Z,12.35
2016-10-12T10:32:25.558Z,12.37
2016-10-12T10:33:25.896Z,12.45
2016-10-12T10:34:25.910Z,12.46
2016-10-12T10:35:26.087Z,12.6
2016-10-12T10:36:25.634Z,12.55
2016-10-12T10:37:25.658Z,12.46
2016-10-12T10:38:25.681Z,12.62
2016-10-12T10:39:25.691Z,12.6
2016-10-12T10:40:25.390Z,12.62
2016-10-12T10:41:25.410Z,12.61
2016-10-12T10:42:25.746Z,12.58
2016-10-12T10:43:26.076Z,12.47
2016-10-12T10:44:25.468Z,12.5
2016-10-12T10:45:25.483Z,12.47
2016-10-12T10:46:25.819Z,12.5
2016-10-12T10:47:26.155Z,12.54
2016-10-12T10:48:25.544Z,12.55
2016-10-12T10:49:25.873Z,12.54
2016-10-12T10:50:25.911Z,12.54
2016-10-12T10:51:25.926Z,12.61
2016-10-12T10:52:25.932Z,12.49
2016-10-12T10:53:25.963Z,12.49
2016-10-12T10:54:26.287Z,12.46
2016-10-12T10:55:25.679Z,12.47
2016-10-12T10:56:26.003Z,12.49
2016-10-12T10:57:26.344Z,12.46
2016-10-12T10:58:25.731Z,12.36
2016-10-12T10:59:26.132Z,12.36
2016-10-12T11:00:25.763Z,12.35
2016-10-12T11:01:26.101Z,12.27
2016-10-12T11:02:25.808Z,12.35
2016-10-12T11:03:25.821Z,12.32
2016-10-12T11:04:25.840Z,12.31
2016-10-12T11:05:26.174Z,12.24
2016-10-12T11:06:26.197Z,12.24
2016-10-12T11:07:26.213Z,12.27
2016-10-12T11:08:25.915Z,12.22
2016-10-12T11:09:26.573Z,12.18
2016-10-12T11:10:26.266Z,12.31
2016-10-12T11:11:26.294Z,12.28
2016-10-12T11:12:26.621Z,12.29
2016-10-12T11:13:26.337Z,12.29
2016-10-12T11:14:26.343Z,12.32
2016-10-12T11:15:26.685Z,12.31
2016-10-12T11:16:26.066Z,12.25
2016-10-12T11:17:26.397Z,12.29
2016-10-12T11:18:26.102Z,12.18
2016-10-12T11:19:26.437Z,12.22
2016-10-12T11:20:26.140Z,12.25
2016-10-12T11:21:26.471Z,12.22
2016-10-12T11:22:26.812Z,12.21
2016-10-12T11:23:26.827Z,12.22
2016-10-12T11:24:26.533Z,12.15
2016-10-12T11:25:26.565Z,12.17
2016-10-12T11:26:26.564Z,12.09
2016-10-12T11:27:26.896Z,12.09
2016-10-12T11:28:26.604Z,12.18
2016-10-12T11:29:26.626Z,12.15
2016-10-12T11:30:26.328Z,12.15
2016-10-12T11:31:26.657Z,12.17
2016-10-12T11:32:26.365Z,12.31
2016-10-12T11:33:26.696Z,12.25
2016-10-12T11:34:26.717Z,12.32
2016-10-12T11:35:27.044Z,12.27
2016-10-12T11:36:26.749Z,12.21
2016-10-12T11:37:26.770Z,12.2
2016-10-12T11:38:26.787Z,12.21
2016-10-12T11:39:27.122Z,12.28
2016-10-12T11:40:26.512Z,12.21
2016-10-12T11:41:26.841Z,12.25
2016-10-12T11:42:26.548Z,12.35
2016-10-12T11:43:26.563Z,12.4
2016-10-12T11:44:27.220Z,12.46
2016-10-12T11:45:27.247Z,12.45
2016-10-12T11:46:26.962Z,12.54
2016-10-12T11:47:26.642Z,12.58
2016-10-12T11:48:26.974Z,12.57
2016-10-12T11:49:26.994Z,12.6
2016-10-12T11:50:27.015Z,12.57
2016-10-12T11:51:27.349Z,12.64
2016-10-12T11:52:27.048Z,12.76
2016-10-12T11:53:27.076Z,12.9
2016-10-12T11:54:27.083Z,12.95
2016-10-12T11:55:27.104Z,13.03
2016-10-12T11:56:26.807Z,13.09
2016-10-12T11:57:27.151Z,13.12
2016-10-12T11:58:26.848Z,13.23
2016-10-12T11:59:27.184Z,13.35
2016-10-12T12:00:27.205Z,13.33
2016-10-12T12:01:27.220Z,13.41
2016-10-12T12:02:27.555Z,13.5
2016-10-12T12:03:26.946Z,13.63
2016-10-12T12:04:27.283Z,13.72
2016-10-12T12:05:26.984Z,13.79
2016-10-12T12:06:27.638Z,13.9
2016-10-12T12:07:27.345Z,14.05
2016-10-12T12:08:27.359Z,14.04
2016-10-12T12:09:27.061Z,14.12
2016-10-12T12:10:27.398Z,14.23
2016-10-12T12:11:27.421Z,14.3
2016-10-12T12:12:27.754Z,14.48
2016-10-12T12:13:27.461Z,14.54
2016-10-12T12:14:27.795Z,14.62
2016-10-12T12:15:27.499Z,14.72
2016-10-12T12:16:27.837Z,14.81
2016-10-12T12:17:27.223Z,14.82
2016-10-12T12:18:27.260Z,14.79
2016-10-12T12:19:27.581Z,14.85
2016-10-12T12:20:27.596Z,14.91
2016-10-12T12:21:27.933Z,14.84
2016-10-12T12:22:27.678Z,14.81
2016-10-12T12:23:27.367Z,14.91
2016-10-12T12:24:27.706Z,14.91
2016-10-12T12:25:27.399Z,14.85
2016-10-12T12:26:28.120Z,14.88
2016-10-12T12:27:27.429Z,14.81
2016-10-12T12:28:27.783Z,14.84
2016-10-12T12:29:27.822Z,14.72
2016-10-12T12:30:28.185Z,14.84
2016-10-12T12:31:27.861Z,14.73
2016-10-12T12:32:28.196Z,14.79
2016-10-12T12:33:27.646Z,14.86
2016-10-12T12:34:28.005Z,14.89
2016-10-12T12:35:28.036Z,14.86
2016-10-12T12:36:27.953Z,14.96
2016-10-12T12:37:27.957Z,15.03
2016-10-12T12:38:28.028Z,15.24
2016-10-12T12:39:28.076Z,15.25
2016-10-12T12:40:28.072Z,15.21
2016-10-12T12:41:27.735Z,15.22
2016-10-12T12:42:27.739Z,15.22
2016-10-12T12:43:28.120Z,15.27
2016-10-12T12:44:27.787Z,15.17
2016-10-12T12:45:28.443Z,15.24
2016-10-12T12:46:28.452Z,15.33
2016-10-12T12:47:28.157Z,15.43
2016-10-12T12:48:28.174Z,15.4
2016-10-12T12:49:27.885Z,15.39
2016-10-12T12:50:27.904Z,15.37
2016-10-12T12:51:28.553Z,15.35
2016-10-12T12:52:28.262Z,15.46
2016-10-12T12:53:28.281Z,15.4
2016-10-12T12:54:29.354Z,15.42
2016-10-12T12:55:28.343Z,15.44
2016-10-12T12:56:28.393Z,15.47
2016-10-12T12:57:28.805Z,15.4
2016-10-12T12:58:28.088Z,15.39
2016-10-12T12:59:28.424Z,15.37
2016-10-12T13:00:28.446Z,15.37
2016-10-12T13:01:28.492Z,15.17